aviador You're here:

KECG Decoded Metar

ELIZABETH CITY in NC, USA
Report Time2018-05-26 14:54:00
UTC Time2018-05-26 15:49:10
Flight Rules vfr VFR
Wind200° at 10 kt
W.Decomp.*RWY 19: 9.6 kt HW 2.9 kt RCW
RWY 28: 2.9 kt HW 9.6 kt LCW
W.Rank200° ranks 1
Current wind is above 200° avg. (8.3)
Visibility9999 m
Phenomena:N/A
Clouds:Few 019 Hf
Expected CloudBase > 1,600 ft AGL from Temp-Dew spread
CeilingNone
Temp27°C (ISA +12)
Dew Point23°C (79% RH)
Heat Index29.6°C
QNH1016 hPa
Density Alt1,696 ft
Elevation36 ft
Report Wrong Elevation
Raw Report
KECG 261454Z 20010KT 10SM FEW019 27/23 A3000 RMK AO2 SLP157
T02720233 51003=

Extra information for KECG:More info

Metar Taf Metar & Taf Last 4 Metars F.Rules Stats Wind Profile Meteogram Temp Stats Airport Information Weather charts Add Link Nearby VenuesMetar ALERT Operation Metar Decoded Social comments

AIRNAV info for KECG